sensor_id;sensor_type;location;lat;lon;timestamp;P1;durP1;ratioP1;P2;durP2;ratioP2
16705;SDS011;8469;60.136;15.180;2023-04-25T00:02:11;1.22;;;1.20;;
16705;SDS011;8469;60.136;15.180;2023-04-25T00:04:38;1.10;;;1.10;;
16705;SDS011;8469;60.136;15.180;2023-04-25T00:07:06;1.02;;;1.02;;
16705;SDS011;8469;60.136;15.180;2023-04-25T00:09:33;1.00;;;1.00;;
16705;SDS011;8469;60.136;15.180;2023-04-25T00:12:00;1.00;;;1.00;;
16705;SDS011;8469;60.136;15.180;2023-04-25T00:14:28;0.90;;;0.90;;
16705;SDS011;8469;60.136;15.180;2023-04-25T00:16:56;1.17;;;1.17;;
16705;SDS011;8469;60.136;15.180;2023-04-25T00:19:24;0.95;;;0.95;;
16705;SDS011;8469;60.136;15.180;2023-04-25T00:21:53;1.10;;;1.00;;
16705;SDS011;8469;60.136;15.180;2023-04-25T00:24:20;1.30;;;1.20;;
16705;SDS011;8469;60.136;15.180;2023-04-25T00:26:48;1.50;;;1.40;;
16705;SDS011;8469;60.136;15.180;2023-04-25T00:29:15;1.10;;;1.10;;
16705;SDS011;8469;60.136;15.180;2023-04-25T00:31:42;1.00;;;1.00;;
16705;SDS011;8469;60.136;15.180;2023-04-25T00:34:10;1.20;;;1.20;;
16705;SDS011;8469;60.136;15.180;2023-04-25T00:36:37;1.10;;;1.10;;
16705;SDS011;8469;60.136;15.180;2023-04-25T00:39:05;1.00;;;1.00;;
16705;SDS011;8469;60.136;15.180;2023-04-25T00:41:32;1.05;;;1.05;;
16705;SDS011;8469;60.136;15.180;2023-04-25T00:44:00;1.00;;;1.00;;
16705;SDS011;8469;60.136;15.180;2023-04-25T00:46:28;1.00;;;1.00;;
16705;SDS011;8469;60.136;15.180;2023-04-25T00:48:56;1.15;;;1.10;;
16705;SDS011;8469;60.136;15.180;2023-04-25T00:51:23;1.02;;;1.02;;
16705;SDS011;8469;60.136;15.180;2023-04-25T00:53:51;1.10;;;1.00;;
16705;SDS011;8469;60.136;15.180;2023-04-25T00:56:19;0.90;;;0.90;;
16705;SDS011;8469;60.136;15.180;2023-04-25T00:58:46;0.90;;;0.90;;
16705;SDS011;8469;60.136;15.180;2023-04-25T01:01:14;3.00;;;1.00;;
16705;SDS011;8469;60.136;15.180;2023-04-25T01:03:42;1.10;;;1.10;;
16705;SDS011;8469;60.136;15.180;2023-04-25T01:06:11;1.00;;;1.00;;
16705;SDS011;8469;60.136;15.180;2023-04-25T01:08:38;1.25;;;1.15;;
16705;SDS011;8469;60.136;15.180;2023-04-25T01:11:06;1.05;;;1.05;;
16705;SDS011;8469;60.136;15.180;2023-04-25T01:13:34;1.02;;;1.00;;
16705;SDS011;8469;60.136;15.180;2023-04-25T01:16:02;1.20;;;1.20;;
16705;SDS011;8469;60.136;15.180;2023-04-25T01:18:29;0.90;;;0.90;;
16705;SDS011;8469;60.136;15.180;2023-04-25T01:21:02;1.25;;;1.02;;
16705;SDS011;8469;60.136;15.180;2023-04-25T01:23:26;1.10;;;0.90;;
16705;SDS011;8469;60.136;15.180;2023-04-25T01:25:53;1.05;;;0.95;;
16705;SDS011;8469;60.136;15.180;2023-04-25T01:28:20;1.60;;;1.00;;
16705;SDS011;8469;60.136;15.180;2023-04-25T01:30:48;1.20;;;1.20;;
16705;SDS011;8469;60.136;15.180;2023-04-25T01:33:15;1.00;;;1.00;;
16705;SDS011;8469;60.136;15.180;2023-04-25T01:35:43;1.20;;;1.20;;
16705;SDS011;8469;60.136;15.180;2023-04-25T01:38:11;1.20;;;1.10;;
16705;SDS011;8469;60.136;15.180;2023-04-25T01:40:39;1.07;;;1.00;;
16705;SDS011;8469;60.136;15.180;2023-04-25T01:43:07;1.20;;;1.10;;
16705;SDS011;8469;60.136;15.180;2023-04-25T01:45:37;1.30;;;1.20;;
16705;SDS011;8469;60.136;15.180;2023-04-25T01:48:09;1.00;;;1.00;;
16705;SDS011;8469;60.136;15.180;2023-04-25T01:50:38;1.25;;;1.10;;
16705;SDS011;8469;60.136;15.180;2023-04-25T01:53:06;1.27;;;1.20;;
16705;SDS011;8469;60.136;15.180;2023-04-25T01:55:33;1.00;;;1.00;;
16705;SDS011;8469;60.136;15.180;2023-04-25T01:58:02;1.10;;;1.10;;
16705;SDS011;8469;60.136;15.180;2023-04-25T02:00:30;2.10;;;1.37;;
16705;SDS011;8469;60.136;15.180;2023-04-25T02:02:58;1.30;;;1.20;;
16705;SDS011;8469;60.136;15.180;2023-04-25T02:05:25;1.70;;;1.17;;
16705;SDS011;8469;60.136;15.180;2023-04-25T02:07:53;1.32;;;1.32;;
16705;SDS011;8469;60.136;15.180;2023-04-25T02:10:20;1.05;;;1.05;;
16705;SDS011;8469;60.136;15.180;2023-04-25T02:12:47;0.95;;;0.95;;
16705;SDS011;8469;60.136;15.180;2023-04-25T02:15:14;1.07;;;1.07;;
16705;SDS011;8469;60.136;15.180;2023-04-25T02:17:42;1.30;;;1.20;;
16705;SDS011;8469;60.136;15.180;2023-04-25T02:20:11;1.40;;;1.30;;
16705;SDS011;8469;60.136;15.180;2023-04-25T02:22:38;1.10;;;1.10;;
16705;SDS011;8469;60.136;15.180;2023-04-25T02:25:06;1.00;;;1.00;;
16705;SDS011;8469;60.136;15.180;2023-04-25T02:27:33;1.65;;;1.40;;
16705;SDS011;8469;60.136;15.180;2023-04-25T02:30:01;1.07;;;1.07;;
16705;SDS011;8469;60.136;15.180;2023-04-25T02:32:29;1.00;;;1.00;;
16705;SDS011;8469;60.136;15.180;2023-04-25T02:34:56;2.20;;;1.05;;
16705;SDS011;8469;60.136;15.180;2023-04-25T02:37:25;0.90;;;0.90;;
16705;SDS011;8469;60.136;15.180;2023-04-25T02:39:52;1.25;;;1.15;;
16705;SDS011;8469;60.136;15.180;2023-04-25T02:42:20;1.45;;;1.20;;
16705;SDS011;8469;60.136;15.180;2023-04-25T02:44:47;1.12;;;1.12;;
16705;SDS011;8469;60.136;15.180;2023-04-25T02:47:14;1.10;;;1.10;;
16705;SDS011;8469;60.136;15.180;2023-04-25T02:49:42;0.90;;;0.90;;
16705;SDS011;8469;60.136;15.180;2023-04-25T02:52:09;1.05;;;1.05;;
16705;SDS011;8469;60.136;15.180;2023-04-25T02:54:37;1.00;;;1.00;;
16705;SDS011;8469;60.136;15.180;2023-04-25T02:57:05;0.98;;;0.98;;
16705;SDS011;8469;60.136;15.180;2023-04-25T02:59:32;1.10;;;1.10;;
16705;SDS011;8469;60.136;15.180;2023-04-25T03:02:00;1.00;;;1.00;;
16705;SDS011;8469;60.136;15.180;2023-04-25T03:04:27;1.02;;;1.02;;
16705;SDS011;8469;60.136;15.180;2023-04-25T03:06:55;1.70;;;1.60;;
16705;SDS011;8469;60.136;15.180;2023-04-25T03:09:22;1.20;;;1.20;;
16705;SDS011;8469;60.136;15.180;2023-04-25T03:11:50;1.20;;;1.10;;
16705;SDS011;8469;60.136;15.180;2023-04-25T03:14:17;1.25;;;1.12;;
16705;SDS011;8469;60.136;15.180;2023-04-25T03:16:45;2.02;;;1.20;;
16705;SDS011;8469;60.136;15.180;2023-04-25T03:19:12;3.83;;;2.50;;
16705;SDS011;8469;60.136;15.180;2023-04-25T03:21:41;1.33;;;1.27;;
16705;SDS011;8469;60.136;15.180;2023-04-25T03:24:08;1.40;;;1.30;;
16705;SDS011;8469;60.136;15.180;2023-04-25T03:26:37;1.35;;;1.25;;
16705;SDS011;8469;60.136;15.180;2023-04-25T03:29:04;1.12;;;1.12;;
16705;SDS011;8469;60.136;15.180;2023-04-25T03:31:31;1.42;;;1.32;;
16705;SDS011;8469;60.136;15.180;2023-04-25T03:33:59;1.30;;;1.20;;
16705;SDS011;8469;60.136;15.180;2023-04-25T03:36:26;1.30;;;1.20;;
16705;SDS011;8469;60.136;15.180;2023-04-25T03:38:54;1.50;;;1.40;;
16705;SDS011;8469;60.136;15.180;2023-04-25T03:41:21;1.22;;;1.22;;
16705;SDS011;8469;60.136;15.180;2023-04-25T03:43:48;1.50;;;1.40;;
16705;SDS011;8469;60.136;15.180;2023-04-25T03:46:16;1.60;;;1.50;;
16705;SDS011;8469;60.136;15.180;2023-04-25T03:48:43;1.50;;;1.40;;
16705;SDS011;8469;60.136;15.180;2023-04-25T03:51:11;1.40;;;1.30;;
16705;SDS011;8469;60.136;15.180;2023-04-25T03:53:38;1.67;;;1.57;;
16705;SDS011;8469;60.136;15.180;2023-04-25T03:56:05;1.30;;;1.20;;
16705;SDS011;8469;60.136;15.180;2023-04-25T03:58:33;1.42;;;1.32;;
16705;SDS011;8469;60.136;15.180;2023-04-25T04:01:00;1.32;;;1.25;;
16705;SDS011;8469;60.136;15.180;2023-04-25T04:03:29;1.50;;;1.40;;
16705;SDS011;8469;60.136;15.180;2023-04-25T04:05:56;1.45;;;1.40;;
16705;SDS011;8469;60.136;15.180;2023-04-25T04:08:25;1.60;;;1.50;;
16705;SDS011;8469;60.136;15.180;2023-04-25T04:10:53;1.52;;;1.42;;
16705;SDS011;8469;60.136;15.180;2023-04-25T04:13:20;1.77;;;1.30;;
16705;SDS011;8469;60.136;15.180;2023-04-25T04:15:47;1.40;;;1.30;;
16705;SDS011;8469;60.136;15.180;2023-04-25T04:18:15;1.22;;;1.20;;
16705;SDS011;8469;60.136;15.180;2023-04-25T04:20:42;1.60;;;1.50;;
16705;SDS011;8469;60.136;15.180;2023-04-25T04:23:09;1.40;;;1.30;;
16705;SDS011;8469;60.136;15.180;2023-04-25T04:25:37;1.52;;;1.27;;
16705;SDS011;8469;60.136;15.180;2023-04-25T04:28:05;1.33;;;1.33;;
16705;SDS011;8469;60.136;15.180;2023-04-25T04:30:34;1.10;;;1.10;;
16705;SDS011;8469;60.136;15.180;2023-04-25T04:33:03;2.30;;;1.20;;
16705;SDS011;8469;60.136;15.180;2023-04-25T04:35:30;1.47;;;1.37;;
16705;SDS011;8469;60.136;15.180;2023-04-25T04:37:57;1.30;;;1.27;;
16705;SDS011;8469;60.136;15.180;2023-04-25T04:40:25;1.42;;;1.32;;
16705;SDS011;8469;60.136;15.180;2023-04-25T04:42:52;1.42;;;1.32;;
16705;SDS011;8469;60.136;15.180;2023-04-25T04:45:21;1.72;;;1.22;;
16705;SDS011;8469;60.136;15.180;2023-04-25T04:47:49;1.40;;;1.35;;
16705;SDS011;8469;60.136;15.180;2023-04-25T04:50:17;1.43;;;1.40;;
16705;SDS011;8469;60.136;15.180;2023-04-25T04:52:44;1.75;;;1.20;;
16705;SDS011;8469;60.136;15.180;2023-04-25T04:55:12;1.20;;;1.20;;
16705;SDS011;8469;60.136;15.180;2023-04-25T04:57:39;1.15;;;1.15;;
16705;SDS011;8469;60.136;15.180;2023-04-25T05:00:07;1.20;;;1.20;;
16705;SDS011;8469;60.136;15.180;2023-04-25T05:02:37;1.77;;;1.67;;
16705;SDS011;8469;60.136;15.180;2023-04-25T05:05:04;1.20;;;1.10;;
16705;SDS011;8469;60.136;15.180;2023-04-25T05:07:32;1.10;;;1.10;;
16705;SDS011;8469;60.136;15.180;2023-04-25T05:09:59;2.17;;;1.40;;
16705;SDS011;8469;60.136;15.180;2023-04-25T05:12:27;1.37;;;1.27;;
16705;SDS011;8469;60.136;15.180;2023-04-25T05:14:54;1.30;;;1.20;;
16705;SDS011;8469;60.136;15.180;2023-04-25T05:17:21;1.10;;;1.10;;
16705;SDS011;8469;60.136;15.180;2023-04-25T05:19:49;1.05;;;1.05;;
16705;SDS011;8469;60.136;15.180;2023-04-25T05:22:16;1.00;;;1.00;;
16705;SDS011;8469;60.136;15.180;2023-04-25T05:24:43;1.30;;;1.30;;
16705;SDS011;8469;60.136;15.180;2023-04-25T05:27:11;1.12;;;1.12;;
16705;SDS011;8469;60.136;15.180;2023-04-25T05:29:38;1.25;;;1.25;;
16705;SDS011;8469;60.136;15.180;2023-04-25T05:32:05;1.02;;;1.02;;
16705;SDS011;8469;60.136;15.180;2023-04-25T05:34:33;1.10;;;1.10;;
16705;SDS011;8469;60.136;15.180;2023-04-25T05:37:01;1.25;;;1.20;;
16705;SDS011;8469;60.136;15.180;2023-04-25T05:39:28;1.00;;;1.00;;
16705;SDS011;8469;60.136;15.180;2023-04-25T05:41:55;1.60;;;1.50;;
16705;SDS011;8469;60.136;15.180;2023-04-25T05:44:23;1.27;;;1.27;;
16705;SDS011;8469;60.136;15.180;2023-04-25T05:46:50;1.15;;;1.15;;
16705;SDS011;8469;60.136;15.180;2023-04-25T05:49:18;1.30;;;1.20;;
16705;SDS011;8469;60.136;15.180;2023-04-25T05:51:45;1.35;;;1.30;;
16705;SDS011;8469;60.136;15.180;2023-04-25T05:54:12;1.12;;;1.12;;
16705;SDS011;8469;60.136;15.180;2023-04-25T05:56:40;1.30;;;1.30;;
16705;SDS011;8469;60.136;15.180;2023-04-25T05:59:07;1.20;;;1.20;;
16705;SDS011;8469;60.136;15.180;2023-04-25T06:01:34;1.22;;;1.22;;
16705;SDS011;8469;60.136;15.180;2023-04-25T06:04:02;1.10;;;1.10;;
16705;SDS011;8469;60.136;15.180;2023-04-25T06:06:29;1.12;;;1.12;;
16705;SDS011;8469;60.136;15.180;2023-04-25T06:08:57;1.30;;;1.30;;
16705;SDS011;8469;60.136;15.180;2023-04-25T06:11:24;1.70;;;1.60;;
16705;SDS011;8469;60.136;15.180;2023-04-25T06:13:51;1.10;;;1.10;;
16705;SDS011;8469;60.136;15.180;2023-04-25T06:16:19;2.40;;;1.32;;
16705;SDS011;8469;60.136;15.180;2023-04-25T06:18:46;1.17;;;1.17;;
16705;SDS011;8469;60.136;15.180;2023-04-25T06:21:13;1.30;;;1.30;;
16705;SDS011;8469;60.136;15.180;2023-04-25T06:23:41;1.00;;;1.00;;
16705;SDS011;8469;60.136;15.180;2023-04-25T06:26:08;1.10;;;1.10;;
16705;SDS011;8469;60.136;15.180;2023-04-25T06:28:35;1.20;;;1.20;;
16705;SDS011;8469;60.136;15.180;2023-04-25T06:31:03;1.00;;;1.00;;
16705;SDS011;8469;60.136;15.180;2023-04-25T06:33:30;1.27;;;1.27;;
16705;SDS011;8469;60.136;15.180;2023-04-25T06:35:58;1.00;;;1.00;;
16705;SDS011;8469;60.136;15.180;2023-04-25T06:38:25;1.10;;;1.10;;
16705;SDS011;8469;60.136;15.180;2023-04-25T06:40:52;0.90;;;0.90;;
16705;SDS011;8469;60.136;15.180;2023-04-25T06:43:20;1.00;;;1.00;;
16705;SDS011;8469;60.136;15.180;2023-04-25T06:45:47;1.10;;;1.10;;
16705;SDS011;8469;60.136;15.180;2023-04-25T06:48:14;0.98;;;0.98;;
16705;SDS011;8469;60.136;15.180;2023-04-25T06:50:42;1.00;;;1.00;;
16705;SDS011;8469;60.136;15.180;2023-04-25T06:53:09;1.00;;;1.00;;
16705;SDS011;8469;60.136;15.180;2023-04-25T06:55:38;1.00;;;1.00;;
16705;SDS011;8469;60.136;15.180;2023-04-25T06:58:05;1.42;;;1.32;;
16705;SDS011;8469;60.136;15.180;2023-04-25T07:00:33;1.12;;;1.12;;
16705;SDS011;8469;60.136;15.180;2023-04-25T07:03:00;1.32;;;1.22;;
16705;SDS011;8469;60.136;15.180;2023-04-25T07:05:28;1.40;;;1.30;;
16705;SDS011;8469;60.136;15.180;2023-04-25T07:07:55;1.50;;;1.40;;
16705;SDS011;8469;60.136;15.180;2023-04-25T07:10:23;0.90;;;0.90;;
16705;SDS011;8469;60.136;15.180;2023-04-25T07:12:51;0.80;;;0.80;;
16705;SDS011;8469;60.136;15.180;2023-04-25T07:15:18;1.07;;;1.07;;
16705;SDS011;8469;60.136;15.180;2023-04-25T07:17:46;1.20;;;1.20;;
16705;SDS011;8469;60.136;15.180;2023-04-25T07:20:13;1.00;;;1.00;;
16705;SDS011;8469;60.136;15.180;2023-04-25T07:22:41;1.10;;;1.10;;
16705;SDS011;8469;60.136;15.180;2023-04-25T07:25:09;1.10;;;1.10;;
16705;SDS011;8469;60.136;15.180;2023-04-25T07:27:36;1.00;;;1.00;;
16705;SDS011;8469;60.136;15.180;2023-04-25T07:30:04;1.05;;;1.05;;
16705;SDS011;8469;60.136;15.180;2023-04-25T07:32:32;0.80;;;0.80;;
16705;SDS011;8469;60.136;15.180;2023-04-25T07:34:59;0.90;;;0.90;;
16705;SDS011;8469;60.136;15.180;2023-04-25T07:37:28;0.90;;;0.90;;
16705;SDS011;8469;60.136;15.180;2023-04-25T07:39:55;0.80;;;0.80;;
16705;SDS011;8469;60.136;15.180;2023-04-25T07:42:23;0.80;;;0.80;;
16705;SDS011;8469;60.136;15.180;2023-04-25T07:44:49;0.88;;;0.88;;
16705;SDS011;8469;60.136;15.180;2023-04-25T07:47:18;0.80;;;0.80;;
16705;SDS011;8469;60.136;15.180;2023-04-25T07:49:48;0.90;;;0.90;;
16705;SDS011;8469;60.136;15.180;2023-04-25T07:52:15;0.80;;;0.80;;
16705;SDS011;8469;60.136;15.180;2023-04-25T07:54:43;0.90;;;0.90;;
16705;SDS011;8469;60.136;15.180;2023-04-25T07:57:10;0.80;;;0.80;;
16705;SDS011;8469;60.136;15.180;2023-04-25T07:59:39;1.00;;;1.00;;
16705;SDS011;8469;60.136;15.180;2023-04-25T08:02:07;1.17;;;1.07;;
16705;SDS011;8469;60.136;15.180;2023-04-25T08:04:34;1.00;;;1.00;;
16705;SDS011;8469;60.136;15.180;2023-04-25T08:07:02;0.80;;;0.80;;
16705;SDS011;8469;60.136;15.180;2023-04-25T08:09:29;1.30;;;1.20;;
16705;SDS011;8469;60.136;15.180;2023-04-25T08:11:58;1.25;;;1.15;;
16705;SDS011;8469;60.136;15.180;2023-04-25T08:14:26;1.47;;;1.40;;
16705;SDS011;8469;60.136;15.180;2023-04-25T08:16:55;1.00;;;1.00;;
16705;SDS011;8469;60.136;15.180;2023-04-25T08:19:22;0.88;;;0.88;;
16705;SDS011;8469;60.136;15.180;2023-04-25T08:21:50;1.00;;;1.00;;
16705;SDS011;8469;60.136;15.180;2023-04-25T08:24:18;1.22;;;1.20;;
16705;SDS011;8469;60.136;15.180;2023-04-25T08:26:45;0.93;;;0.93;;
16705;SDS011;8469;60.136;15.180;2023-04-25T08:29:12;0.80;;;0.80;;
16705;SDS011;8469;60.136;15.180;2023-04-25T08:31:40;0.85;;;0.85;;
16705;SDS011;8469;60.136;15.180;2023-04-25T08:34:07;0.80;;;0.80;;
16705;SDS011;8469;60.136;15.180;2023-04-25T08:36:34;0.80;;;0.80;;
16705;SDS011;8469;60.136;15.180;2023-04-25T08:39:02;0.80;;;0.80;;
16705;SDS011;8469;60.136;15.180;2023-04-25T08:41:29;0.78;;;0.78;;
16705;SDS011;8469;60.136;15.180;2023-04-25T08:43:57;0.67;;;0.67;;
16705;SDS011;8469;60.136;15.180;2023-04-25T08:46:26;0.70;;;0.70;;
16705;SDS011;8469;60.136;15.180;2023-04-25T08:48:54;0.60;;;0.60;;
16705;SDS011;8469;60.136;15.180;2023-04-25T08:51:23;0.40;;;0.40;;
16705;SDS011;8469;60.136;15.180;2023-04-25T08:53:53;0.57;;;0.57;;
16705;SDS011;8469;60.136;15.180;2023-04-25T08:56:22;0.50;;;0.50;;
16705;SDS011;8469;60.136;15.180;2023-04-25T08:58:50;0.70;;;0.70;;
16705;SDS011;8469;60.136;15.180;2023-04-25T09:01:18;0.70;;;0.70;;
16705;SDS011;8469;60.136;15.180;2023-04-25T09:03:45;0.60;;;0.60;;
16705;SDS011;8469;60.136;15.180;2023-04-25T09:06:13;0.50;;;0.50;;
16705;SDS011;8469;60.136;15.180;2023-04-25T09:08:42;0.50;;;0.50;;
16705;SDS011;8469;60.136;15.180;2023-04-25T09:11:09;0.60;;;0.60;;
16705;SDS011;8469;60.136;15.180;2023-04-25T09:13:37;0.60;;;0.60;;
16705;SDS011;8469;60.136;15.180;2023-04-25T09:16:05;0.70;;;0.70;;
16705;SDS011;8469;60.136;15.180;2023-04-25T09:18:33;1.80;;;0.60;;
16705;SDS011;8469;60.136;15.180;2023-04-25T09:21:10;0.60;;;0.60;;
16705;SDS011;8469;60.136;15.180;2023-04-25T09:23:43;0.60;;;0.60;;
16705;SDS011;8469;60.136;15.180;2023-04-25T09:26:10;0.60;;;0.60;;
16705;SDS011;8469;60.136;15.180;2023-04-25T09:28:39;0.70;;;0.70;;
16705;SDS011;8469;60.136;15.180;2023-04-25T09:31:20;0.50;;;0.50;;
16705;SDS011;8469;60.136;15.180;2023-04-25T09:33:40;1.13;;;0.40;;
16705;SDS011;8469;60.136;15.180;2023-04-25T09:36:08;0.40;;;0.40;;
16705;SDS011;8469;60.136;15.180;2023-04-25T09:38:40;0.40;;;0.40;;
16705;SDS011;8469;60.136;15.180;2023-04-25T09:41:08;0.40;;;0.40;;
16705;SDS011;8469;60.136;15.180;2023-04-25T09:43:36;0.30;;;0.30;;
16705;SDS011;8469;60.136;15.180;2023-04-25T09:46:10;0.33;;;0.33;;
16705;SDS011;8469;60.136;15.180;2023-04-25T09:48:37;0.30;;;0.30;;
16705;SDS011;8469;60.136;15.180;2023-04-25T09:51:09;0.40;;;0.40;;
16705;SDS011;8469;60.136;15.180;2023-04-25T09:53:42;0.90;;;0.50;;
16705;SDS011;8469;60.136;15.180;2023-04-25T09:56:05;0.40;;;0.40;;
16705;SDS011;8469;60.136;15.180;2023-04-25T09:58:34;1.90;;;0.40;;
16705;SDS011;8469;60.136;15.180;2023-04-25T10:01:03;0.30;;;0.30;;
16705;SDS011;8469;60.136;15.180;2023-04-25T10:03:33;0.30;;;0.30;;
16705;SDS011;8469;60.136;15.180;2023-04-25T10:06:01;0.40;;;0.40;;
16705;SDS011;8469;60.136;15.180;2023-04-25T10:08:35;0.30;;;0.30;;
16705;SDS011;8469;60.136;15.180;2023-04-25T10:11:02;0.47;;;0.37;;
16705;SDS011;8469;60.136;15.180;2023-04-25T10:13:30;0.30;;;0.30;;
16705;SDS011;8469;60.136;15.180;2023-04-25T10:16:01;0.30;;;0.30;;
16705;SDS011;8469;60.136;15.180;2023-04-25T10:18:29;0.30;;;0.30;;
16705;SDS011;8469;60.136;15.180;2023-04-25T10:20:57;0.30;;;0.30;;
16705;SDS011;8469;60.136;15.180;2023-04-25T10:23:26;0.40;;;0.40;;
16705;SDS011;8469;60.136;15.180;2023-04-25T10:25:54;0.30;;;0.30;;
16705;SDS011;8469;60.136;15.180;2023-04-25T10:28:21;0.40;;;0.40;;
16705;SDS011;8469;60.136;15.180;2023-04-25T10:30:59;0.30;;;0.30;;
16705;SDS011;8469;60.136;15.180;2023-04-25T10:33:33;0.60;;;0.30;;
16705;SDS011;8469;60.136;15.180;2023-04-25T10:36:10;0.30;;;0.30;;
16705;SDS011;8469;60.136;15.180;2023-04-25T10:38:38;0.23;;;0.23;;
16705;SDS011;8469;60.136;15.180;2023-04-25T10:41:07;0.30;;;0.30;;
16705;SDS011;8469;60.136;15.180;2023-04-25T10:43:41;0.20;;;0.20;;
16705;SDS011;8469;60.136;15.180;2023-04-25T10:48:54;0.30;;;0.30;;
16705;SDS011;8469;60.136;15.180;2023-04-25T10:51:23;0.30;;;0.30;;
16705;SDS011;8469;60.136;15.180;2023-04-25T10:54:04;0.70;;;0.40;;
16705;SDS011;8469;60.136;15.180;2023-04-25T10:56:36;0.30;;;0.30;;
16705;SDS011;8469;60.136;15.180;2023-04-25T10:59:10;0.30;;;0.30;;
16705;SDS011;8469;60.136;15.180;2023-04-25T11:01:41;0.80;;;0.70;;
16705;SDS011;8469;60.136;15.180;2023-04-25T11:04:24;0.47;;;0.47;;
16705;SDS011;8469;60.136;15.180;2023-04-25T11:09:19;0.28;;;0.28;;
16705;SDS011;8469;60.136;15.180;2023-04-25T11:11:54;0.47;;;0.40;;
16705;SDS011;8469;60.136;15.180;2023-04-25T11:14:22;1.20;;;0.30;;
16705;SDS011;8469;60.136;15.180;2023-04-25T11:16:53;1.40;;;0.50;;
16705;SDS011;8469;60.136;15.180;2023-04-25T11:19:22;0.47;;;0.40;;
16705;SDS011;8469;60.136;15.180;2023-04-25T11:21:49;0.40;;;0.40;;
16705;SDS011;8469;60.136;15.180;2023-04-25T11:24:17;0.35;;;0.35;;
16705;SDS011;8469;60.136;15.180;2023-04-25T11:26:46;0.60;;;0.60;;
16705;SDS011;8469;60.136;15.180;2023-04-25T11:29:14;0.47;;;0.47;;
16705;SDS011;8469;60.136;15.180;2023-04-25T11:31:44;0.60;;;0.60;;
16705;SDS011;8469;60.136;15.180;2023-04-25T11:34:13;0.50;;;0.50;;
16705;SDS011;8469;60.136;15.180;2023-04-25T11:36:40;1.07;;;0.93;;
16705;SDS011;8469;60.136;15.180;2023-04-25T11:39:08;0.80;;;0.80;;
16705;SDS011;8469;60.136;15.180;2023-04-25T11:41:37;0.50;;;0.50;;
16705;SDS011;8469;60.136;15.180;2023-04-25T11:44:04;0.50;;;0.50;;
16705;SDS011;8469;60.136;15.180;2023-04-25T11:46:35;0.45;;;0.45;;
16705;SDS011;8469;60.136;15.180;2023-04-25T11:49:02;0.45;;;0.45;;
16705;SDS011;8469;60.136;15.180;2023-04-25T11:51:37;1.30;;;0.60;;
16705;SDS011;8469;60.136;15.180;2023-04-25T11:53:59;0.50;;;0.50;;
16705;SDS011;8469;60.136;15.180;2023-04-25T11:56:27;0.47;;;0.47;;
16705;SDS011;8469;60.136;15.180;2023-04-25T11:59:03;0.40;;;0.40;;
16705;SDS011;8469;60.136;15.180;2023-04-25T12:01:30;0.50;;;0.50;;
16705;SDS011;8469;60.136;15.180;2023-04-25T12:03:58;0.55;;;0.55;;
16705;SDS011;8469;60.136;15.180;2023-04-25T12:06:38;0.60;;;0.60;;
16705;SDS011;8469;60.136;15.180;2023-04-25T12:09:15;0.50;;;0.50;;
16705;SDS011;8469;60.136;15.180;2023-04-25T12:11:47;0.78;;;0.78;;
16705;SDS011;8469;60.136;15.180;2023-04-25T12:14:11;1.15;;;1.15;;
16705;SDS011;8469;60.136;15.180;2023-04-25T12:16:45;1.27;;;1.00;;
16705;SDS011;8469;60.136;15.180;2023-04-25T12:19:13;0.80;;;0.80;;
16705;SDS011;8469;60.136;15.180;2023-04-25T12:21:41;2.12;;;0.72;;
16705;SDS011;8469;60.136;15.180;2023-04-25T12:24:09;0.70;;;0.70;;
16705;SDS011;8469;60.136;15.180;2023-04-25T12:26:50;0.50;;;0.50;;
16705;SDS011;8469;60.136;15.180;2023-04-25T12:29:23;0.65;;;0.65;;
16705;SDS011;8469;60.136;15.180;2023-04-25T12:31:51;0.60;;;0.50;;
16705;SDS011;8469;60.136;15.180;2023-04-25T12:34:19;0.60;;;0.60;;
16705;SDS011;8469;60.136;15.180;2023-04-25T12:36:47;0.60;;;0.60;;
16705;SDS011;8469;60.136;15.180;2023-04-25T12:39:15;0.70;;;0.70;;
16705;SDS011;8469;60.136;15.180;2023-04-25T12:41:43;0.60;;;0.60;;
16705;SDS011;8469;60.136;15.180;2023-04-25T12:44:10;0.80;;;0.80;;
16705;SDS011;8469;60.136;15.180;2023-04-25T12:46:38;0.57;;;0.57;;
16705;SDS011;8469;60.136;15.180;2023-04-25T12:49:05;0.75;;;0.75;;
16705;SDS011;8469;60.136;15.180;2023-04-25T12:51:34;0.80;;;0.80;;
16705;SDS011;8469;60.136;15.180;2023-04-25T12:54:02;0.70;;;0.70;;
16705;SDS011;8469;60.136;15.180;2023-04-25T12:56:30;0.60;;;0.60;;
16705;SDS011;8469;60.136;15.180;2023-04-25T12:58:57;0.70;;;0.70;;
16705;SDS011;8469;60.136;15.180;2023-04-25T13:01:26;0.78;;;0.78;;
16705;SDS011;8469;60.136;15.180;2023-04-25T13:03:54;0.60;;;0.60;;
16705;SDS011;8469;60.136;15.180;2023-04-25T13:06:22;0.70;;;0.70;;
16705;SDS011;8469;60.136;15.180;2023-04-25T13:08:49;2.15;;;1.35;;
16705;SDS011;8469;60.136;15.180;2023-04-25T13:11:17;0.80;;;0.80;;
16705;SDS011;8469;60.136;15.180;2023-04-25T13:13:44;0.50;;;0.50;;
16705;SDS011;8469;60.136;15.180;2023-04-25T13:16:11;0.70;;;0.70;;
16705;SDS011;8469;60.136;15.180;2023-04-25T13:18:42;0.70;;;0.70;;
16705;SDS011;8469;60.136;15.180;2023-04-25T13:21:10;0.90;;;0.90;;
16705;SDS011;8469;60.136;15.180;2023-04-25T13:23:37;0.72;;;0.72;;
16705;SDS011;8469;60.136;15.180;2023-04-25T13:26:05;0.80;;;0.80;;
16705;SDS011;8469;60.136;15.180;2023-04-25T13:28:34;0.93;;;0.93;;
16705;SDS011;8469;60.136;15.180;2023-04-25T13:31:01;1.07;;;1.07;;
16705;SDS011;8469;60.136;15.180;2023-04-25T13:33:28;0.80;;;0.80;;
16705;SDS011;8469;60.136;15.180;2023-04-25T13:35:56;0.80;;;0.80;;
16705;SDS011;8469;60.136;15.180;2023-04-25T13:38:24;1.05;;;0.80;;
16705;SDS011;8469;60.136;15.180;2023-04-25T13:40:52;1.00;;;1.00;;
16705;SDS011;8469;60.136;15.180;2023-04-25T13:43:19;1.10;;;1.10;;
16705;SDS011;8469;60.136;15.180;2023-04-25T13:45:48;0.90;;;0.90;;
16705;SDS011;8469;60.136;15.180;2023-04-25T13:48:16;0.72;;;0.72;;
16705;SDS011;8469;60.136;15.180;2023-04-25T13:50:43;0.80;;;0.80;;
16705;SDS011;8469;60.136;15.180;2023-04-25T13:53:11;0.72;;;0.72;;
16705;SDS011;8469;60.136;15.180;2023-04-25T13:55:39;4.30;;;0.90;;
16705;SDS011;8469;60.136;15.180;2023-04-25T14:04:55;1.20;;;1.10;;
16705;SDS011;8469;60.136;15.180;2023-04-25T14:07:19;0.85;;;0.85;;
16705;SDS011;8469;60.136;15.180;2023-04-25T14:09:47;1.10;;;1.10;;
16705;SDS011;8469;60.136;15.180;2023-04-25T14:12:15;4.00;;;1.00;;
16705;SDS011;8469;60.136;15.180;2023-04-25T14:14:42;3.90;;;0.80;;
16705;SDS011;8469;60.136;15.180;2023-04-25T14:17:10;1.40;;;1.07;;
16705;SDS011;8469;60.136;15.180;2023-04-25T14:19:37;0.90;;;0.90;;
16705;SDS011;8469;60.136;15.180;2023-04-25T14:22:06;3.00;;;0.90;;
16705;SDS011;8469;60.136;15.180;2023-04-25T14:24:34;1.00;;;1.00;;
16705;SDS011;8469;60.136;15.180;2023-04-25T14:27:01;1.90;;;1.20;;
16705;SDS011;8469;60.136;15.180;2023-04-25T14:29:29;1.10;;;1.00;;
16705;SDS011;8469;60.136;15.180;2023-04-25T14:31:56;1.00;;;0.90;;
16705;SDS011;8469;60.136;15.180;2023-04-25T14:34:24;1.20;;;1.10;;
16705;SDS011;8469;60.136;15.180;2023-04-25T14:36:52;1.20;;;1.10;;
16705;SDS011;8469;60.136;15.180;2023-04-25T14:39:19;1.62;;;1.20;;
16705;SDS011;8469;60.136;15.180;2023-04-25T14:41:47;1.27;;;1.15;;
16705;SDS011;8469;60.136;15.180;2023-04-25T14:44:14;1.10;;;1.00;;
16705;SDS011;8469;60.136;15.180;2023-04-25T14:46:41;0.93;;;0.93;;
16705;SDS011;8469;60.136;15.180;2023-04-25T14:49:09;1.70;;;1.60;;
16705;SDS011;8469;60.136;15.180;2023-04-25T14:51:36;2.42;;;1.20;;
16705;SDS011;8469;60.136;15.180;2023-04-25T14:54:04;1.10;;;1.10;;
16705;SDS011;8469;60.136;15.180;2023-04-25T14:56:31;1.30;;;1.20;;
16705;SDS011;8469;60.136;15.180;2023-04-25T14:58:58;1.20;;;1.20;;
16705;SDS011;8469;60.136;15.180;2023-04-25T15:01:26;0.90;;;0.90;;
16705;SDS011;8469;60.136;15.180;2023-04-25T15:03:53;2.05;;;1.10;;
16705;SDS011;8469;60.136;15.180;2023-04-25T15:06:20;1.02;;;1.02;;